createdAt,value
2022-07-29T00:00:01.833Z,100312.56
2022-07-29T00:02:33.032Z,100310.72
2022-07-29T00:04:59.830Z,100314.31
2022-07-29T00:07:26.564Z,100306.91
2022-07-29T00:09:53.311Z,100311.13
2022-07-29T00:12:25.075Z,100304.97
2022-07-29T00:14:53.704Z,100306.38
2022-07-29T00:17:20.430Z,100311.59
2022-07-29T00:19:47.138Z,100303.06
2022-07-29T00:22:13.782Z,100305.91
2022-07-29T00:24:40.574Z,100304.53
2022-07-29T00:27:07.391Z,100303.28
2022-07-29T00:29:35.033Z,100300.66
2022-07-29T00:32:03.285Z,100302.00
2022-07-29T00:34:49.070Z,100295.56
2022-07-29T00:37:15.770Z,100292.34
2022-07-29T00:39:42.545Z,100287.47
2022-07-29T00:42:10.611Z,100286.81
2022-07-29T00:44:42.388Z,100289.88
2022-07-29T00:47:11.560Z,100284.56
2022-07-29T00:49:40.765Z,100285.84
2022-07-29T00:52:10.069Z,100293.19
2022-07-29T00:54:44.494Z,100288.16
2022-07-29T00:57:13.074Z,100290.34
2022-07-29T00:59:40.110Z,100288.13
2022-07-29T01:02:06.925Z,100283.53
2022-07-29T01:04:34.234Z,100279.47
2022-07-29T01:07:02.907Z,100278.16
2022-07-29T01:09:43.076Z,100275.41
2022-07-29T01:12:16.188Z,100265.97
2022-07-29T01:14:43.704Z,100264.97
2022-07-29T01:17:21.531Z,100269.97
2022-07-29T01:20:06.204Z,100262.22
2022-07-29T01:22:36.066Z,100269.84
2022-07-29T01:25:22.751Z,100259.81
2022-07-29T01:28:11.775Z,100253.78
2022-07-29T01:30:40.899Z,100252.88
2022-07-29T01:33:34.527Z,100248.47
2022-07-29T01:36:06.728Z,100251.63
2022-07-29T01:38:36.433Z,100248.59
2022-07-29T01:41:09.440Z,100249.56
2022-07-29T01:43:52.970Z,100250.00
2022-07-29T01:46:26.404Z,100249.59
2022-07-29T01:49:02.877Z,100250.22
2022-07-29T01:51:44.588Z,100252.28
2022-07-29T01:54:25.933Z,100250.13
2022-07-29T01:56:56.488Z,100242.09
2022-07-29T01:59:25.759Z,100241.88
2022-07-29T02:01:55.780Z,100238.09
2022-07-29T02:04:26.626Z,100238.91
2022-07-29T02:07:01.594Z,100239.19
2022-07-29T02:09:31.306Z,100236.81
2022-07-29T02:12:00.307Z,100241.50
2022-07-29T02:14:31.360Z,100242.34
2022-07-29T02:17:01.246Z,100249.22
2022-07-29T02:19:28.790Z,100247.47
2022-07-29T02:21:58.476Z,100243.44
2022-07-29T02:24:26.868Z,100246.22
2022-07-29T02:26:55.989Z,100243.69
2022-07-29T02:29:25.798Z,100246.44
2022-07-29T02:31:54.440Z,100245.84
2022-07-29T02:34:22.755Z,100246.31
2022-07-29T02:36:50.911Z,100243.84
2022-07-29T02:39:18.618Z,100245.38
2022-07-29T02:41:52.303Z,100242.81
2022-07-29T02:44:24.546Z,100245.56
2022-07-29T02:47:05.053Z,100239.72
2022-07-29T02:49:49.691Z,100238.66
2022-07-29T02:52:25.318Z,100240.28
2022-07-29T02:55:03.145Z,100243.16
2022-07-29T02:57:54.549Z,100241.75
2022-07-29T03:00:27.582Z,100245.28
2022-07-29T03:02:57.330Z,100243.56
2022-07-29T03:05:24.481Z,100244.50
2022-07-29T03:07:57.561Z,100240.19
2022-07-29T03:10:28.557Z,100247.72
2022-07-29T03:12:57.396Z,100248.19
2022-07-29T03:15:26.959Z,100236.38
2022-07-29T03:17:54.666Z,100235.53
2022-07-29T03:20:21.860Z,100242.22
2022-07-29T03:22:48.767Z,100237.38
2022-07-29T03:25:17.695Z,100245.97
2022-07-29T03:27:45.357Z,100239.81
2022-07-29T03:30:18.430Z,100240.03
2022-07-29T03:32:53.411Z,100242.16
2022-07-29T03:35:21.428Z,100234.09
2022-07-29T03:37:48.293Z,100238.97
2022-07-29T03:40:20.978Z,100241.25
2022-07-29T03:42:49.405Z,100240.31
2022-07-29T03:45:19.631Z,100238.34
2022-07-29T03:48:03.037Z,100244.03
2022-07-29T03:50:31.521Z,100245.19
2022-07-29T03:52:59.031Z,100242.00
2022-07-29T03:55:27.454Z,100242.00
2022-07-29T03:57:56.348Z,100245.53
2022-07-29T04:00:25.133Z,100242.78
2022-07-29T04:02:51.986Z,100244.44
2022-07-29T04:05:19.449Z,100236.84
2022-07-29T04:07:47.522Z,100245.25
2022-07-29T04:10:16.625Z,100246.38
2022-07-29T04:12:43.777Z,100252.66
2022-07-29T04:15:11.388Z,100249.59
2022-07-29T04:17:38.732Z,100251.22
2022-07-29T04:20:06.347Z,100247.00
2022-07-29T04:22:33.213Z,100254.09
2022-07-29T04:25:03.964Z,100258.34
2022-07-29T04:27:31.301Z,100250.47
2022-07-29T04:29:58.102Z,100254.81
2022-07-29T04:32:25.829Z,100258.00
2022-07-29T04:34:52.567Z,100250.09
2022-07-29T04:37:19.516Z,100264.31
2022-07-29T04:39:46.184Z,100261.56
2022-07-29T04:42:13.319Z,100268.00
2022-07-29T04:44:43.145Z,100266.06
2022-07-29T04:47:10.296Z,100262.69
2022-07-29T04:49:40.277Z,100263.00
2022-07-29T04:52:07.773Z,100266.41
2022-07-29T04:54:34.543Z,100257.66
2022-07-29T04:57:01.317Z,100258.66
2022-07-29T04:59:28.106Z,100259.91
2022-07-29T05:01:54.926Z,100264.56
2022-07-29T05:04:21.778Z,100255.84
2022-07-29T05:06:48.802Z,100257.97
2022-07-29T05:09:15.728Z,100258.47
2022-07-29T05:11:42.500Z,100263.56
2022-07-29T05:14:09.239Z,100249.06
2022-07-29T05:16:36.162Z,100263.50
2022-07-29T05:19:02.987Z,100274.25
2022-07-29T05:21:29.653Z,100270.66
2022-07-29T05:23:56.381Z,100270.53
2022-07-29T05:26:23.215Z,100271.34
2022-07-29T05:28:50.106Z,100274.25
2022-07-29T05:31:16.854Z,100258.44
2022-07-29T05:33:43.609Z,100264.50
2022-07-29T05:36:10.461Z,100271.59
2022-07-29T05:38:37.428Z,100279.72
2022-07-29T05:41:05.997Z,100274.22
2022-07-29T05:43:33.202Z,100278.97
2022-07-29T05:46:00.209Z,100283.56
2022-07-29T05:48:27.047Z,100276.53
2022-07-29T05:50:53.938Z,100286.09
2022-07-29T05:53:21.161Z,100277.06
2022-07-29T05:55:51.726Z,100285.75
2022-07-29T05:58:18.969Z,100289.06
2022-07-29T06:00:45.985Z,100284.97
2022-07-29T06:03:12.761Z,100288.25
2022-07-29T06:05:39.594Z,100295.75
2022-07-29T06:08:08.024Z,100295.00
2022-07-29T06:10:38.171Z,100305.28
2022-07-29T06:13:05.009Z,100297.47
2022-07-29T06:15:31.787Z,100317.47
2022-07-29T06:18:00.543Z,100306.94
2022-07-29T06:20:31.245Z,100309.91
2022-07-29T06:22:59.418Z,100316.31
2022-07-29T06:25:27.388Z,100309.28
2022-07-29T06:27:54.089Z,100307.72
2022-07-29T06:30:20.866Z,100308.47
2022-07-29T06:32:48.074Z,100311.81
2022-07-29T06:38:02.315Z,100308.72
2022-07-29T06:40:47.793Z,100302.97
2022-07-29T06:43:14.639Z,100308.72
2022-07-29T06:45:42.478Z,100309.50
2022-07-29T06:48:10.490Z,100319.41
2022-07-29T06:50:37.355Z,100320.22
2022-07-29T06:53:04.919Z,100322.28
2022-07-29T06:55:31.790Z,100325.84
2022-07-29T06:57:58.468Z,100324.00
2022-07-29T07:00:25.604Z,100328.72
2022-07-29T07:02:57.962Z,100337.53
2022-07-29T07:05:24.712Z,100333.03
2022-07-29T07:07:51.438Z,100329.09
2022-07-29T07:10:19.525Z,100336.84
2022-07-29T07:12:46.266Z,100337.63
2022-07-29T07:15:13.447Z,100342.84
2022-07-29T07:17:40.475Z,100344.47
2022-07-29T07:20:07.900Z,100342.66
2022-07-29T07:22:38.938Z,100349.88
2022-07-29T07:25:07.480Z,100344.13
2022-07-29T07:27:34.204Z,100347.81
2022-07-29T07:30:01.778Z,100351.38
2022-07-29T07:32:30.055Z,100352.25
2022-07-29T07:34:56.926Z,100349.94
2022-07-29T07:37:25.641Z,100358.28
2022-07-29T07:39:53.270Z,100353.13
2022-07-29T07:42:20.624Z,100347.38
2022-07-29T07:45:11.944Z,100351.81
2022-07-29T07:47:37.834Z,100344.97
2022-07-29T07:50:11.714Z,100350.84
2022-07-29T07:52:53.436Z,100355.13
2022-07-29T07:55:20.960Z,100349.53
2022-07-29T07:57:48.345Z,100343.31
2022-07-29T08:00:16.595Z,100352.28
2022-07-29T08:02:44.084Z,100347.06
2022-07-29T08:05:13.095Z,100341.91
2022-07-29T08:07:40.070Z,100350.69
2022-07-29T08:10:07.211Z,100345.19
2022-07-29T08:12:34.346Z,100347.88
2022-07-29T08:15:01.284Z,100350.31
2022-07-29T08:17:28.128Z,100349.28
2022-07-29T08:19:55.400Z,100349.81
2022-07-29T08:22:22.122Z,100349.28
2022-07-29T08:24:53.416Z,100354.84
2022-07-29T08:27:42.600Z,100356.75
2022-07-29T08:30:08.862Z,100351.44
2022-07-29T08:35:25.429Z,100367.72
2022-07-29T08:37:52.997Z,100367.13
2022-07-29T08:40:31.876Z,100366.13
2022-07-29T08:43:04.942Z,100360.63
2022-07-29T08:45:47.460Z,100363.22
2022-07-29T08:48:23.536Z,100369.19
2022-07-29T08:50:56.678Z,100368.63
2022-07-29T08:53:27.346Z,100368.97
2022-07-29T08:55:54.517Z,100369.75
2022-07-29T08:58:23.214Z,100365.97
2022-07-29T09:00:55.469Z,100370.09
2022-07-29T09:03:30.536Z,100365.19
2022-07-29T09:05:57.726Z,100363.97
2022-07-29T09:08:24.738Z,100363.75
2022-07-29T09:10:52.178Z,100368.25
2022-07-29T09:13:19.094Z,100359.19
2022-07-29T09:15:46.160Z,100354.75
2022-07-29T09:18:26.757Z,100364.00
2022-07-29T09:21:16.434Z,100362.88
2022-07-29T09:24:10.870Z,100365.28
2022-07-29T09:26:45.669Z,100363.63
2022-07-29T09:29:18.090Z,100364.97
2022-07-29T09:31:52.372Z,100360.31
2022-07-29T09:34:27.224Z,100359.53
2022-07-29T09:36:55.997Z,100352.88
2022-07-29T09:39:38.112Z,100363.88
2022-07-29T09:42:06.992Z,100359.34
2022-07-29T09:44:43.846Z,100358.09
2022-07-29T09:47:10.776Z,100359.25
2022-07-29T09:49:55.028Z,100357.44
2022-07-29T09:52:22.393Z,100359.34
2022-07-29T09:54:49.126Z,100358.47
2022-07-29T09:57:30.857Z,100352.53
2022-07-29T10:00:00.350Z,100360.91
2022-07-29T10:02:32.072Z,100358.38
2022-07-29T10:05:01.607Z,100354.16
2022-07-29T10:07:53.923Z,100350.13
2022-07-29T10:10:23.895Z,100353.91
2022-07-29T10:13:01.819Z,100354.94
2022-07-29T10:15:38.105Z,100354.00
2022-07-29T10:18:05.200Z,100353.59
2022-07-29T10:20:31.938Z,100357.75
2022-07-29T10:22:58.872Z,100355.16
2022-07-29T10:25:26.819Z,100355.16
2022-07-29T10:27:54.828Z,100350.28
2022-07-29T10:30:23.330Z,100347.91
2022-07-29T10:32:58.775Z,100342.22
2022-07-29T10:35:46.985Z,100344.31
2022-07-29T10:38:28.715Z,100347.63
2022-07-29T10:44:26.371Z,100343.41
2022-07-29T10:46:54.381Z,100333.31
2022-07-29T10:49:27.701Z,100335.44
2022-07-29T10:52:11.412Z,100329.25
2022-07-29T10:54:38.222Z,100330.19
2022-07-29T10:57:18.750Z,100341.13
2022-07-29T10:59:48.372Z,100332.13
2022-07-29T11:02:40.928Z,100332.88
2022-07-29T11:05:10.079Z,100328.41
2022-07-29T11:07:45.942Z,100329.25
2022-07-29T11:10:13.933Z,100332.06
2022-07-29T11:12:48.304Z,100325.13
2022-07-29T11:15:21.589Z,100326.66
2022-07-29T11:18:01.493Z,100324.53
2022-07-29T11:20:54.776Z,100324.72
2022-07-29T11:23:33.408Z,100323.63
2022-07-29T11:26:22.872Z,100330.09
2022-07-29T11:28:56.039Z,100318.00
2022-07-29T11:31:43.945Z,100321.75
2022-07-29T11:34:33.066Z,100327.22
2022-07-29T11:37:07.628Z,100307.19
2022-07-29T11:39:36.445Z,100309.13
2022-07-29T11:42:32.391Z,100315.34
2022-07-29T11:45:43.218Z,100310.63
2022-07-29T11:48:32.082Z,100312.75
2022-07-29T11:50:53.609Z,100309.13
2022-07-29T11:53:20.940Z,100307.97
2022-07-29T11:55:56.127Z,100294.97
2022-07-29T11:58:26.003Z,100289.38
2022-07-29T12:00:55.803Z,100294.09
2022-07-29T12:03:34.858Z,100288.75
2022-07-29T12:06:18.103Z,100287.22
2022-07-29T12:08:45.755Z,100288.19
2022-07-29T12:11:21.406Z,100294.06
2022-07-29T12:13:50.893Z,100289.06
2022-07-29T12:16:29.446Z,100286.25
2022-07-29T12:19:02.034Z,100285.56
2022-07-29T12:21:30.380Z,100296.84
2022-07-29T12:24:02.099Z,100294.53
2022-07-29T12:26:34.087Z,100290.72
2022-07-29T12:29:03.358Z,100287.38
2022-07-29T12:31:43.567Z,100290.31
2022-07-29T12:34:13.919Z,100282.47
2022-07-29T12:36:42.867Z,100283.38
2022-07-29T12:39:11.527Z,100284.50
2022-07-29T12:41:38.349Z,100280.63
2022-07-29T12:44:05.546Z,100283.75
2022-07-29T12:46:32.464Z,100282.69
2022-07-29T12:48:59.651Z,100275.84
2022-07-29T12:51:40.454Z,100276.50
2022-07-29T12:54:14.276Z,100272.03
2022-07-29T12:56:45.153Z,100270.81
2022-07-29T12:59:20.809Z,100266.72
2022-07-29T13:01:50.381Z,100270.09
2022-07-29T13:04:34.459Z,100268.56
2022-07-29T13:07:08.101Z,100269.66
2022-07-29T13:09:39.135Z,100269.00
2022-07-29T13:12:11.175Z,100269.81
2022-07-29T13:14:40.911Z,100268.00
2022-07-29T13:17:19.206Z,100274.53
2022-07-29T13:19:52.374Z,100277.50
2022-07-29T13:22:21.897Z,100269.66
2022-07-29T13:24:57.995Z,100264.00
2022-07-29T13:27:27.357Z,100273.00
2022-07-29T13:29:57.521Z,100275.69
2022-07-29T13:32:28.486Z,100271.63
2022-07-29T13:35:01.761Z,100273.53
2022-07-29T13:37:35.345Z,100278.38
2022-07-29T13:40:04.067Z,100271.53
2022-07-29T13:42:32.425Z,100271.13
2022-07-29T13:44:59.868Z,100273.38
2022-07-29T13:47:32.142Z,100265.66
2022-07-29T13:50:05.355Z,100263.38
2022-07-29T13:52:33.698Z,100267.03
2022-07-29T13:55:01.203Z,100267.09
2022-07-29T13:57:28.699Z,100262.22
2022-07-29T13:59:56.154Z,100257.41
2022-07-29T14:02:25.289Z,100261.06
2022-07-29T14:04:53.986Z,100260.91
2022-07-29T14:07:21.371Z,100249.31
2022-07-29T14:09:48.110Z,100261.31
2022-07-29T14:12:14.910Z,100251.72
2022-07-29T14:14:42.438Z,100253.13
2022-07-29T14:17:10.365Z,100243.47
2022-07-29T14:19:38.626Z,100244.88
2022-07-29T14:22:06.952Z,100241.56
2022-07-29T14:24:36.405Z,100254.56
2022-07-29T14:27:04.718Z,100244.59
2022-07-29T14:29:37.015Z,100246.56
2022-07-29T14:32:08.959Z,100248.94
2022-07-29T14:34:37.543Z,100246.69
2022-07-29T14:37:09.395Z,100248.34
2022-07-29T14:39:42.799Z,100246.53
2022-07-29T14:42:11.576Z,100236.03
2022-07-29T14:44:42.014Z,100230.16
2022-07-29T14:47:08.674Z,100234.88
2022-07-29T14:49:36.185Z,100232.25
2022-07-29T14:52:03.815Z,100224.50
2022-07-29T14:54:30.433Z,100238.88
2022-07-29T14:56:58.418Z,100232.66
2022-07-29T14:59:26.453Z,100234.22
2022-07-29T15:01:53.437Z,100232.19
2022-07-29T15:04:20.468Z,100237.72
2022-07-29T15:06:47.258Z,100237.97
2022-07-29T15:09:14.215Z,100242.56
2022-07-29T15:11:40.927Z,100242.16
2022-07-29T15:14:07.803Z,100226.28
2022-07-29T15:16:37.841Z,100240.34
2022-07-29T15:19:05.554Z,100245.00
2022-07-29T15:21:32.957Z,100241.59
2022-07-29T15:23:59.855Z,100245.34
2022-07-29T15:26:27.177Z,100236.53
2022-07-29T15:28:54.017Z,100239.28
2022-07-29T15:31:20.849Z,100239.47
2022-07-29T15:33:47.712Z,100241.09
2022-07-29T15:36:35.708Z,100242.09
2022-07-29T15:39:02.071Z,100227.63
2022-07-29T15:41:28.899Z,100230.56
2022-07-29T15:43:55.565Z,100244.47
2022-07-29T15:46:40.794Z,100234.97
2022-07-29T15:49:08.803Z,100233.22
2022-07-29T15:51:35.850Z,100225.88
2022-07-29T15:54:04.473Z,100237.78
2022-07-29T15:56:31.568Z,100227.16
2022-07-29T15:58:58.824Z,100222.88
2022-07-29T16:01:25.909Z,100223.22
2022-07-29T16:03:53.243Z,100218.84
2022-07-29T16:06:20.494Z,100225.69
2022-07-29T16:08:47.436Z,100222.53
2022-07-29T16:11:14.148Z,100213.16
2022-07-29T16:13:41.058Z,100216.44
2022-07-29T16:16:08.889Z,100213.44
2022-07-29T16:18:35.980Z,100208.78
2022-07-29T16:21:03.090Z,100212.16
2022-07-29T16:23:30.039Z,100218.19
2022-07-29T16:26:00.057Z,100211.13
2022-07-29T16:28:31.122Z,100205.78
2022-07-29T16:30:58.304Z,100206.59
2022-07-29T16:33:25.575Z,100211.28
2022-07-29T16:35:52.837Z,100209.38
2022-07-29T16:38:20.423Z,100212.34
2022-07-29T16:40:47.946Z,100206.69
2022-07-29T16:43:15.246Z,100213.50
2022-07-29T16:45:46.077Z,100206.81
2022-07-29T16:48:15.078Z,100213.94
2022-07-29T16:50:45.074Z,100219.81
2022-07-29T16:53:11.721Z,100217.97
2022-07-29T16:55:38.790Z,100217.88
2022-07-29T16:58:10.030Z,100213.91
2022-07-29T17:00:37.221Z,100211.19
2022-07-29T17:03:05.441Z,100215.44
2022-07-29T17:05:52.655Z,100218.63
2022-07-29T17:08:20.061Z,100220.81
2022-07-29T17:10:47.279Z,100222.41
2022-07-29T17:13:14.464Z,100221.44
2022-07-29T17:15:42.999Z,100223.41
2022-07-29T17:18:12.357Z,100225.47
2022-07-29T17:20:42.054Z,100225.22
2022-07-29T17:23:09.415Z,100232.34
2022-07-29T17:25:36.324Z,100229.22
2022-07-29T17:28:03.196Z,100245.63
2022-07-29T17:30:29.964Z,100256.31
2022-07-29T17:32:56.843Z,100253.28
2022-07-29T17:35:41.967Z,100259.84
2022-07-29T17:38:08.671Z,100259.53
2022-07-29T17:40:35.418Z,100257.22
2022-07-29T17:43:02.723Z,100259.19
2022-07-29T17:45:50.339Z,100261.69
2022-07-29T17:48:16.294Z,100271.72
2022-07-29T17:50:43.034Z,100266.72
2022-07-29T17:53:16.136Z,100274.28
2022-07-29T17:55:48.501Z,100274.22
2022-07-29T17:58:15.974Z,100281.97
2022-07-29T18:00:43.177Z,100274.38
2022-07-29T18:03:10.236Z,100282.03
2022-07-29T18:05:37.147Z,100291.66
2022-07-29T18:08:04.088Z,100277.63
2022-07-29T18:10:31.249Z,100293.28
2022-07-29T18:12:57.979Z,100300.06
2022-07-29T18:15:24.693Z,100294.09
2022-07-29T18:17:56.457Z,100302.56
2022-07-29T18:20:24.229Z,100307.84
2022-07-29T18:22:51.204Z,100308.22
2022-07-29T18:25:18.240Z,100307.34
2022-07-29T18:27:45.172Z,100312.78
2022-07-29T18:30:12.057Z,100315.25
2022-07-29T18:32:38.759Z,100325.31
2022-07-29T18:35:06.316Z,100333.53
2022-07-29T18:38:01.384Z,100343.50
2022-07-29T18:40:25.385Z,100344.19
2022-07-29T18:42:53.136Z,100339.63
2022-07-29T18:45:20.053Z,100340.84
2022-07-29T18:47:49.064Z,100341.19
2022-07-29T18:50:16.929Z,100342.56
2022-07-29T18:52:46.102Z,100345.63
2022-07-29T18:55:13.759Z,100345.19
2022-07-29T18:57:54.117Z,100347.84
2022-07-29T19:00:24.247Z,100343.97
2022-07-29T19:02:52.597Z,100342.81
2022-07-29T19:05:19.921Z,100355.78
2022-07-29T19:07:46.674Z,100360.19
2022-07-29T19:10:13.611Z,100360.44
2022-07-29T19:12:40.571Z,100379.38
2022-07-29T19:15:08.010Z,100377.41
2022-07-29T19:17:34.754Z,100369.59
2022-07-29T19:20:02.058Z,100373.84
2022-07-29T19:22:30.773Z,100381.78
2022-07-29T19:24:57.827Z,100373.53
2022-07-29T19:27:25.904Z,100378.81
2022-07-29T19:29:52.568Z,100384.09
2022-07-29T19:32:24.694Z,100397.84
2022-07-29T19:35:11.517Z,100398.78
2022-07-29T19:37:38.213Z,100405.41
2022-07-29T19:40:06.273Z,100415.53
2022-07-29T19:42:33.032Z,100411.75
2022-07-29T19:44:59.957Z,100419.44
2022-07-29T19:47:26.829Z,100428.47
2022-07-29T19:49:53.624Z,100425.63
2022-07-29T19:52:20.646Z,100435.84
2022-07-29T19:54:47.370Z,100432.53
2022-07-29T19:57:14.352Z,100432.28
2022-07-29T19:59:41.320Z,100446.63
2022-07-29T20:02:11.039Z,100444.78
2022-07-29T20:04:38.614Z,100440.06
2022-07-29T20:07:06.385Z,100458.31
2022-07-29T20:09:33.442Z,100462.22
2022-07-29T20:12:00.405Z,100465.34
2022-07-29T20:14:27.101Z,100475.88
2022-07-29T20:16:54.362Z,100489.47
2022-07-29T20:19:21.657Z,100482.97
2022-07-29T20:21:48.450Z,100492.66
2022-07-29T20:24:15.105Z,100492.16
2022-07-29T20:26:41.873Z,100489.75
2022-07-29T20:29:09.167Z,100494.56
2022-07-29T20:31:36.143Z,100483.22
2022-07-29T20:34:03.804Z,100486.44
2022-07-29T20:36:30.962Z,100480.69
2022-07-29T20:38:59.930Z,100477.72
2022-07-29T20:41:27.071Z,100482.97
2022-07-29T20:43:53.785Z,100483.22
2022-07-29T20:46:20.614Z,100490.09
2022-07-29T20:48:47.842Z,100480.44
2022-07-29T20:51:14.857Z,100487.78
2022-07-29T20:53:41.905Z,100485.72
2022-07-29T20:56:08.675Z,100491.69
2022-07-29T20:58:36.398Z,100495.31
2022-07-29T21:01:07.997Z,100494.88
2022-07-29T21:03:35.528Z,100498.88
2022-07-29T21:06:02.544Z,100491.06
2022-07-29T21:08:29.350Z,100507.63
2022-07-29T21:10:56.568Z,100500.63
2022-07-29T21:13:25.446Z,100497.75
2022-07-29T21:15:55.809Z,100495.63
2022-07-29T21:18:33.048Z,100495.78
2022-07-29T21:21:01.341Z,100501.28
2022-07-29T21:23:28.461Z,100502.31
2022-07-29T21:25:55.995Z,100506.09
2022-07-29T21:28:35.775Z,100508.84
2022-07-29T21:31:12.767Z,100508.75
2022-07-29T21:33:41.463Z,100514.56
2022-07-29T21:36:42.760Z,100510.06
2022-07-29T21:38:56.973Z,100517.22
2022-07-29T21:41:23.784Z,100517.69
2022-07-29T21:43:50.992Z,100510.13
2022-07-29T21:46:18.414Z,100521.13
2022-07-29T21:48:45.498Z,100520.16
2022-07-29T21:51:12.293Z,100526.50
2022-07-29T21:53:40.157Z,100522.66
2022-07-29T21:56:09.373Z,100538.41
2022-07-29T21:58:41.673Z,100528.81
2022-07-29T22:01:08.585Z,100531.97
2022-07-29T22:03:35.337Z,100539.72
2022-07-29T22:06:02.113Z,100543.22
2022-07-29T22:08:28.776Z,100542.03
2022-07-29T22:10:55.446Z,100546.59
2022-07-29T22:13:22.174Z,100543.78
2022-07-29T22:15:48.935Z,100542.34
2022-07-29T22:18:20.774Z,100548.66
2022-07-29T22:20:51.362Z,100548.19
2022-07-29T22:23:18.205Z,100547.88
2022-07-29T22:25:44.967Z,100547.66
2022-07-29T22:28:11.745Z,100550.69
2022-07-29T22:30:38.401Z,100558.16
2022-07-29T22:33:05.199Z,100556.59
2022-07-29T22:35:31.871Z,100553.97
2022-07-29T22:37:58.529Z,100557.78
2022-07-29T22:40:30.556Z,100554.56
2022-07-29T22:42:57.727Z,100554.81
2022-07-29T22:45:24.407Z,100551.91
2022-07-29T22:47:55.943Z,100556.16
2022-07-29T22:50:24.660Z,100561.47
2022-07-29T22:52:51.364Z,100566.69
2022-07-29T22:55:18.185Z,100561.34
2022-07-29T22:57:44.943Z,100569.13
2022-07-29T23:00:13.485Z,100559.72
2022-07-29T23:02:41.304Z,100570.56
2022-07-29T23:05:11.546Z,100569.31
2022-07-29T23:07:38.543Z,100565.88
2022-07-29T23:10:05.790Z,100571.03
2022-07-29T23:12:32.459Z,100565.75
2022-07-29T23:15:00.544Z,100568.97
2022-07-29T23:17:27.398Z,100574.25
2022-07-29T23:19:54.193Z,100571.16
2022-07-29T23:22:20.899Z,100576.34
2022-07-29T23:24:47.702Z,100579.50
2022-07-29T23:27:14.424Z,100574.38
2022-07-29T23:29:41.294Z,100576.44
2022-07-29T23:32:08.121Z,100580.31
2022-07-29T23:34:35.246Z,100578.47
2022-07-29T23:37:02.286Z,100577.53
2022-07-29T23:39:29.355Z,100577.94
2022-07-29T23:41:56.112Z,100579.72
2022-07-29T23:44:22.821Z,100574.84
2022-07-29T23:46:49.670Z,100574.81
2022-07-29T23:49:16.652Z,100573.88
2022-07-29T23:51:43.487Z,100574.16
2022-07-29T23:54:10.220Z,100576.97
2022-07-29T23:56:36.977Z,100574.25
2022-07-29T23:59:05.751Z,100577.47
